createdAt,value
2018-08-06T00:00:54.939Z,50.80
2018-08-06T00:01:26.662Z,50.80
2018-08-06T00:01:58.513Z,50.70
2018-08-06T00:02:30.249Z,50.60
2018-08-06T00:03:01.979Z,50.60
2018-08-06T00:03:33.699Z,50.60
2018-08-06T00:04:05.438Z,50.50
2018-08-06T00:04:37.160Z,50.50
2018-08-06T00:05:08.891Z,50.50
2018-08-06T00:05:40.616Z,50.50
2018-08-06T00:06:12.339Z,50.40
2018-08-06T00:06:44.060Z,50.40
2018-08-06T00:07:15.780Z,50.40
2018-08-06T00:07:47.515Z,50.30
2018-08-06T00:08:19.230Z,50.40
2018-08-06T00:08:50.954Z,50.40
2018-08-06T00:09:22.681Z,50.40
2018-08-06T00:09:54.401Z,50.40
2018-08-06T00:10:26.141Z,50.40
2018-08-06T00:10:57.854Z,50.40
2018-08-06T00:11:29.594Z,50.40
2018-08-06T00:12:01.393Z,50.40
2018-08-06T00:12:33.122Z,50.40
2018-08-06T00:13:37.093Z,50.60
2018-08-06T00:14:08.820Z,50.50
2018-08-06T00:14:40.547Z,50.50
2018-08-06T00:15:12.273Z,50.50
2018-08-06T00:15:44.047Z,50.50
2018-08-06T00:16:15.761Z,50.70
2018-08-06T00:16:47.503Z,50.70
2018-08-06T00:17:19.228Z,50.70
2018-08-06T00:17:50.953Z,50.80
2018-08-06T00:18:22.676Z,50.70
2018-08-06T00:18:54.403Z,50.70
2018-08-06T00:19:26.210Z,50.80
2018-08-06T00:19:57.936Z,50.70
2018-08-06T00:20:29.673Z,50.70
2018-08-06T00:21:01.402Z,50.70
2018-08-06T00:21:33.129Z,50.70
2018-08-06T00:22:04.844Z,50.70
2018-08-06T00:22:36.558Z,50.70
2018-08-06T00:23:08.297Z,50.70
2018-08-06T00:23:40.042Z,50.70
2018-08-06T00:24:11.768Z,50.70
2018-08-06T00:24:43.503Z,50.70
2018-08-06T00:25:15.299Z,50.70
2018-08-06T00:25:47.052Z,50.90
2018-08-06T00:26:18.780Z,50.90
2018-08-06T00:26:50.508Z,50.90
2018-08-06T00:27:22.225Z,50.90
2018-08-06T00:27:53.941Z,51.00
2018-08-06T00:28:25.673Z,51.20
2018-08-06T00:28:57.409Z,51.10
2018-08-06T00:29:29.205Z,51.20
2018-08-06T00:30:01.105Z,51.20
2018-08-06T00:30:32.841Z,51.40
2018-08-06T00:31:04.566Z,51.40
2018-08-06T00:31:36.293Z,51.60
2018-08-06T00:32:08.014Z,51.60
2018-08-06T00:32:39.730Z,51.60
2018-08-06T00:33:11.447Z,51.60
2018-08-06T00:33:43.182Z,51.70
2018-08-06T00:34:14.911Z,51.60
2018-08-06T00:34:46.640Z,51.50
2018-08-06T00:35:18.366Z,51.50
2018-08-06T00:35:50.089Z,51.40
2018-08-06T00:36:21.857Z,51.30
2018-08-06T00:36:53.619Z,51.20
2018-08-06T00:37:25.359Z,51.20
2018-08-06T00:37:57.097Z,51.20
2018-08-06T00:38:28.818Z,51.10
2018-08-06T00:39:00.545Z,51.10
2018-08-06T00:39:32.268Z,51.20
2018-08-06T00:40:04.021Z,51.10
2018-08-06T00:40:35.749Z,51.10
2018-08-06T00:41:07.463Z,51.10
2018-08-06T00:41:39.183Z,51.10
2018-08-06T00:42:10.934Z,51.20
2018-08-06T00:42:42.672Z,51.10
2018-08-06T00:43:14.427Z,51.20
2018-08-06T00:43:46.167Z,51.10
2018-08-06T00:44:17.894Z,51.20
2018-08-06T00:44:49.622Z,51.10
2018-08-06T00:45:21.356Z,51.10
2018-08-06T00:45:53.334Z,51.10
2018-08-06T00:46:25.095Z,51.20
2018-08-06T00:46:57.021Z,51.20
2018-08-06T00:47:28.742Z,51.20
2018-08-06T00:48:00.460Z,51.20
2018-08-06T00:48:32.191Z,51.20
2018-08-06T00:49:03.909Z,51.20
2018-08-06T00:49:35.630Z,51.20
2018-08-06T00:50:07.377Z,51.20
2018-08-06T00:50:39.202Z,51.30
2018-08-06T00:51:10.922Z,51.30
2018-08-06T00:51:42.652Z,51.30
2018-08-06T00:52:14.382Z,51.40
2018-08-06T00:52:46.113Z,51.30
2018-08-06T00:53:17.850Z,51.40
2018-08-06T00:53:49.574Z,51.60
2018-08-06T00:54:21.296Z,51.70
2018-08-06T00:54:53.025Z,51.70
2018-08-06T00:55:24.752Z,51.60
2018-08-06T00:55:56.482Z,51.70
2018-08-06T00:56:28.257Z,51.70
2018-08-06T00:56:59.970Z,51.70
2018-08-06T00:57:31.697Z,51.70
2018-08-06T00:58:03.428Z,51.70
2018-08-06T00:58:35.161Z,51.60
2018-08-06T00:59:06.897Z,51.50
2018-08-06T00:59:38.624Z,51.50
2018-08-06T01:00:10.351Z,51.50
2018-08-06T01:00:42.078Z,51.80
2018-08-06T01:01:13.798Z,51.40
2018-08-06T01:01:45.526Z,51.40
2018-08-06T01:02:17.258Z,51.40
2018-08-06T01:02:48.987Z,51.50
2018-08-06T01:03:20.701Z,51.40
2018-08-06T01:03:52.424Z,51.50
2018-08-06T01:04:24.153Z,51.50
2018-08-06T01:04:56.050Z,51.50
2018-08-06T01:05:27.777Z,52.10
2018-08-06T01:05:59.503Z,51.50
2018-08-06T01:06:31.227Z,51.50
2018-08-06T01:07:02.961Z,51.40
2018-08-06T01:07:34.722Z,51.50
2018-08-06T01:08:06.428Z,51.50
2018-08-06T01:08:38.151Z,51.50
2018-08-06T01:09:09.911Z,51.50
2018-08-06T01:09:41.637Z,51.50
2018-08-06T01:10:13.359Z,51.60
2018-08-06T01:10:45.170Z,51.60
2018-08-06T01:11:48.944Z,51.60
2018-08-06T01:12:20.654Z,51.60
2018-08-06T01:12:52.389Z,51.60
2018-08-06T01:13:24.111Z,51.60
2018-08-06T01:13:55.844Z,51.70
2018-08-06T01:14:27.600Z,51.70
2018-08-06T01:14:59.294Z,51.80
2018-08-06T01:15:31.053Z,51.90
2018-08-06T01:16:02.807Z,51.90
2018-08-06T01:16:34.528Z,52.00
2018-08-06T01:17:06.254Z,52.00
2018-08-06T01:17:37.975Z,52.10
2018-08-06T01:18:09.690Z,52.20
2018-08-06T01:18:41.417Z,52.20
2018-08-06T01:19:13.177Z,52.20
2018-08-06T01:19:44.905Z,52.20
2018-08-06T01:20:16.629Z,52.10
2018-08-06T01:20:48.367Z,52.00
2018-08-06T01:21:20.098Z,52.00
2018-08-06T01:21:51.819Z,52.00
2018-08-06T01:22:23.536Z,52.00
2018-08-06T01:22:55.265Z,51.90
2018-08-06T01:23:27.042Z,51.90
2018-08-06T01:23:58.777Z,51.90
2018-08-06T01:24:30.502Z,51.90
2018-08-06T01:25:02.221Z,51.90
2018-08-06T01:25:33.984Z,51.90
2018-08-06T01:26:05.878Z,51.80
2018-08-06T01:26:37.602Z,51.80
2018-08-06T01:27:09.330Z,51.80
2018-08-06T01:27:41.042Z,51.70
2018-08-06T01:28:12.772Z,51.70
2018-08-06T01:28:44.510Z,51.70
2018-08-06T01:29:16.239Z,51.70
2018-08-06T01:29:47.979Z,51.70
2018-08-06T01:30:19.741Z,51.60
2018-08-06T01:30:51.470Z,51.70
2018-08-06T01:31:23.195Z,51.70
2018-08-06T01:31:54.926Z,51.70
2018-08-06T01:32:26.641Z,51.70
2018-08-06T01:32:58.381Z,51.70
2018-08-06T01:33:30.114Z,51.70
2018-08-06T01:34:01.847Z,51.70
2018-08-06T01:34:33.561Z,51.70
2018-08-06T01:35:05.282Z,51.80
2018-08-06T01:35:37.009Z,51.70
2018-08-06T01:36:08.726Z,51.80
2018-08-06T01:36:40.533Z,51.80
2018-08-06T01:37:12.251Z,51.70
2018-08-06T01:37:43.982Z,51.80
2018-08-06T01:38:15.757Z,51.80
2018-08-06T01:38:47.486Z,51.70
2018-08-06T01:39:19.208Z,51.80
2018-08-06T01:39:51.005Z,51.80
2018-08-06T01:40:22.702Z,51.80
2018-08-06T01:40:54.483Z,51.80
2018-08-06T01:41:26.262Z,51.80
2018-08-06T01:41:58.160Z,51.80
2018-08-06T01:42:30.053Z,51.80
2018-08-06T01:43:01.766Z,51.80
2018-08-06T01:43:33.501Z,51.80
2018-08-06T01:44:05.220Z,51.90
2018-08-06T01:44:36.942Z,51.90
2018-08-06T01:45:08.675Z,51.90
2018-08-06T01:45:40.515Z,51.90
2018-08-06T01:46:12.428Z,51.90
2018-08-06T01:46:44.147Z,52.50
2018-08-06T01:47:16.000Z,52.60
2018-08-06T01:47:47.721Z,52.00
2018-08-06T01:48:19.446Z,52.00
2018-08-06T01:48:51.170Z,52.00
2018-08-06T01:49:22.947Z,52.00
2018-08-06T01:49:54.978Z,52.00
2018-08-06T01:50:26.698Z,52.00
2018-08-06T01:50:58.433Z,52.10
2018-08-06T01:51:30.142Z,52.10
2018-08-06T01:52:01.862Z,52.00
2018-08-06T01:52:33.611Z,52.00
2018-08-06T01:53:05.333Z,52.10
2018-08-06T01:53:37.281Z,52.10
2018-08-06T01:54:09.060Z,52.10
2018-08-06T01:54:40.742Z,52.00
2018-08-06T01:55:12.513Z,52.10
2018-08-06T01:55:44.258Z,52.00
2018-08-06T01:56:48.009Z,52.10
2018-08-06T01:57:19.736Z,52.00
2018-08-06T01:57:51.504Z,52.00
2018-08-06T01:58:23.405Z,52.10
2018-08-06T01:58:55.120Z,52.00
2018-08-06T01:59:26.825Z,52.00
2018-08-06T01:59:58.761Z,52.00
2018-08-06T02:00:30.480Z,52.00
2018-08-06T02:01:02.213Z,52.10
2018-08-06T02:02:05.967Z,52.30
2018-08-06T02:02:37.698Z,52.30
2018-08-06T02:03:09.429Z,52.30
2018-08-06T02:03:41.245Z,52.30
2018-08-06T02:04:12.980Z,52.40
2018-08-06T02:04:44.700Z,53.00
2018-08-06T02:05:16.439Z,52.40
2018-08-06T02:05:48.164Z,52.40
2018-08-06T02:06:19.912Z,52.40
2018-08-06T02:06:51.640Z,52.30
2018-08-06T02:07:23.454Z,52.30
2018-08-06T02:07:55.175Z,52.30
2018-08-06T02:08:26.901Z,52.20
2018-08-06T02:08:58.622Z,52.20
2018-08-06T02:09:30.352Z,52.20
2018-08-06T02:10:02.078Z,52.10
2018-08-06T02:10:33.808Z,52.20
2018-08-06T02:11:37.562Z,52.80
2018-08-06T02:12:09.285Z,52.10
2018-08-06T02:12:41.009Z,52.10
2018-08-06T02:13:12.736Z,52.10
2018-08-06T02:13:44.457Z,52.00
2018-08-06T02:14:16.182Z,52.10
2018-08-06T02:14:47.914Z,52.10
2018-08-06T02:15:19.641Z,52.10
2018-08-06T02:15:51.366Z,52.10
2018-08-06T02:16:23.093Z,52.10
2018-08-06T02:16:54.823Z,52.10
2018-08-06T02:17:26.543Z,52.10
2018-08-06T02:17:58.277Z,52.10
2018-08-06T02:18:30.023Z,52.10
2018-08-06T02:19:01.757Z,52.10
2018-08-06T02:19:33.474Z,52.20
2018-08-06T02:20:05.203Z,52.10
2018-08-06T02:20:36.920Z,52.10
2018-08-06T02:21:08.658Z,52.40
2018-08-06T02:21:40.416Z,52.20
2018-08-06T02:22:12.133Z,52.20
2018-08-06T02:22:43.866Z,52.20
2018-08-06T02:23:15.593Z,52.20
2018-08-06T02:23:47.407Z,52.20
2018-08-06T02:24:19.134Z,52.30
2018-08-06T02:24:50.857Z,52.30
2018-08-06T02:25:22.576Z,52.30
2018-08-06T02:25:54.333Z,52.30
2018-08-06T02:26:26.079Z,52.30
2018-08-06T02:26:57.786Z,52.40
2018-08-06T02:27:29.528Z,52.40
2018-08-06T02:28:01.254Z,52.40
2018-08-06T02:28:32.978Z,52.30
2018-08-06T02:29:04.703Z,52.40
2018-08-06T02:29:36.421Z,52.40
2018-08-06T02:30:08.168Z,52.40
2018-08-06T02:30:39.887Z,52.40
2018-08-06T02:31:43.645Z,52.40
2018-08-06T02:32:15.379Z,52.40
2018-08-06T02:32:47.101Z,52.30
2018-08-06T02:33:18.825Z,52.30
2018-08-06T02:33:50.561Z,52.30
2018-08-06T02:34:22.303Z,52.30
2018-08-06T02:34:54.227Z,52.30
2018-08-06T02:35:25.962Z,52.30
2018-08-06T02:35:57.684Z,52.30
2018-08-06T02:36:29.633Z,52.30
2018-08-06T02:37:01.442Z,52.30
2018-08-06T02:37:33.383Z,52.30
2018-08-06T02:38:05.301Z,52.40
2018-08-06T02:38:37.026Z,52.40
2018-08-06T02:39:08.769Z,52.50
2018-08-06T02:39:40.690Z,52.50
2018-08-06T02:40:12.420Z,52.60
2018-08-06T02:40:44.147Z,52.70
2018-08-06T02:41:15.862Z,52.70
2018-08-06T02:41:47.598Z,52.60
2018-08-06T02:42:19.322Z,52.70
2018-08-06T02:42:51.078Z,52.60
2018-08-06T02:43:22.793Z,52.70
2018-08-06T02:43:54.518Z,52.90
2018-08-06T02:44:26.251Z,52.90
2018-08-06T02:44:57.974Z,53.00
2018-08-06T02:45:29.708Z,52.90
2018-08-06T02:46:01.699Z,53.10
2018-08-06T02:46:33.453Z,53.20
2018-08-06T02:47:05.194Z,53.70
2018-08-06T02:47:36.985Z,53.80
2018-08-06T02:48:08.713Z,53.10
2018-08-06T02:48:40.433Z,53.60
2018-08-06T02:49:12.173Z,53.20
2018-08-06T02:49:43.888Z,53.20
2018-08-06T02:50:15.632Z,53.10
2018-08-06T02:50:47.390Z,53.10
2018-08-06T02:51:19.112Z,53.10
2018-08-06T02:51:50.825Z,53.10
2018-08-06T02:52:23.341Z,53.00
2018-08-06T02:52:55.039Z,52.90
2018-08-06T02:53:26.751Z,52.90
2018-08-06T02:54:30.497Z,53.00
2018-08-06T02:55:02.282Z,53.00
2018-08-06T02:55:34.216Z,53.00
2018-08-06T02:56:05.933Z,53.40
2018-08-06T02:56:37.690Z,53.10
2018-08-06T02:57:09.450Z,53.10
2018-08-06T02:57:41.182Z,53.10
2018-08-06T02:58:12.932Z,53.10
2018-08-06T02:58:44.662Z,53.10
2018-08-06T02:59:16.391Z,53.10
2018-08-06T02:59:48.136Z,53.00
2018-08-06T03:00:19.881Z,53.10
2018-08-06T03:00:51.594Z,53.10
2018-08-06T03:01:23.371Z,53.10
2018-08-06T03:01:55.093Z,53.20
2018-08-06T03:02:26.862Z,53.20
2018-08-06T03:02:58.596Z,53.20
2018-08-06T03:03:30.514Z,53.30
2018-08-06T03:04:02.273Z,53.30
2018-08-06T03:04:33.973Z,53.40
2018-08-06T03:05:05.897Z,53.30
2018-08-06T03:05:37.629Z,53.30
2018-08-06T03:06:09.355Z,53.40
2018-08-06T03:06:41.070Z,53.40
2018-08-06T03:07:12.799Z,53.50
2018-08-06T03:07:44.558Z,53.50
2018-08-06T03:08:16.452Z,53.50
2018-08-06T03:08:48.187Z,53.50
2018-08-06T03:09:19.904Z,53.50
2018-08-06T03:09:51.646Z,53.60
2018-08-06T03:10:23.378Z,53.60
2018-08-06T03:10:55.106Z,53.50
2018-08-06T03:11:26.846Z,53.50
2018-08-06T03:11:58.561Z,53.50
2018-08-06T03:12:30.325Z,53.40
2018-08-06T03:13:02.065Z,53.50
2018-08-06T03:13:33.780Z,53.60
2018-08-06T03:14:05.496Z,53.70
2018-08-06T03:14:37.240Z,53.70
2018-08-06T03:15:08.986Z,53.80
2018-08-06T03:16:12.722Z,54.30
2018-08-06T03:16:44.451Z,53.70
2018-08-06T03:17:16.177Z,53.70
2018-08-06T03:17:47.947Z,53.60
2018-08-06T03:18:19.860Z,53.60
2018-08-06T03:18:51.584Z,53.60
2018-08-06T03:19:23.302Z,53.50
2018-08-06T03:19:55.035Z,53.60
2018-08-06T03:20:26.785Z,53.50
2018-08-06T03:20:58.522Z,53.50
2018-08-06T03:21:30.259Z,53.50
2018-08-06T03:22:01.987Z,53.50
2018-08-06T03:22:33.713Z,53.60
2018-08-06T03:23:05.447Z,53.70
2018-08-06T03:23:37.169Z,53.70
2018-08-06T03:24:08.896Z,53.80
2018-08-06T03:24:40.648Z,53.80
2018-08-06T03:25:12.373Z,53.90
2018-08-06T03:25:44.101Z,53.80
2018-08-06T03:26:15.855Z,53.70
2018-08-06T03:26:47.584Z,53.80
2018-08-06T03:27:19.302Z,53.90
2018-08-06T03:27:51.014Z,53.90
2018-08-06T03:28:22.732Z,54.00
2018-08-06T03:28:54.461Z,54.00
2018-08-06T03:29:26.192Z,54.00
2018-08-06T03:29:58.109Z,53.90
2018-08-06T03:30:29.834Z,54.00
2018-08-06T03:31:01.558Z,54.00
2018-08-06T03:31:33.286Z,54.00
2018-08-06T03:32:05.010Z,53.90
2018-08-06T03:32:36.747Z,54.00
2018-08-06T03:33:08.742Z,54.00
2018-08-06T03:33:40.488Z,54.00
2018-08-06T03:34:12.213Z,54.20
2018-08-06T03:34:43.938Z,54.10
2018-08-06T03:35:15.666Z,54.20
2018-08-06T03:35:47.415Z,54.20
2018-08-06T03:36:19.138Z,54.30
2018-08-06T03:36:50.866Z,53.80
2018-08-06T03:37:22.637Z,54.30
2018-08-06T03:37:54.350Z,54.30
2018-08-06T03:38:26.085Z,54.30
2018-08-06T03:38:57.834Z,54.10
2018-08-06T03:39:29.565Z,54.00
2018-08-06T03:40:01.333Z,53.90
2018-08-06T03:40:33.054Z,53.90
2018-08-06T03:41:04.985Z,53.80
2018-08-06T03:41:36.711Z,53.70
2018-08-06T03:42:40.514Z,53.70
2018-08-06T03:43:12.438Z,53.60
2018-08-06T03:43:44.157Z,53.50
2018-08-06T03:44:15.889Z,53.50
2018-08-06T03:44:47.606Z,53.50
2018-08-06T03:45:19.336Z,53.40
2018-08-06T03:45:51.069Z,53.50
2018-08-06T03:46:22.804Z,53.50
2018-08-06T03:46:54.532Z,53.50
2018-08-06T03:47:26.438Z,53.50
2018-08-06T03:47:58.438Z,53.50
2018-08-06T03:48:30.161Z,54.20
2018-08-06T03:49:01.896Z,53.50
2018-08-06T03:49:33.631Z,53.50
2018-08-06T03:50:05.366Z,53.50
2018-08-06T03:50:37.092Z,53.50
2018-08-06T03:51:08.825Z,53.60
2018-08-06T03:51:40.554Z,53.70
2018-08-06T03:52:12.300Z,53.60
2018-08-06T03:52:44.133Z,53.60
2018-08-06T03:53:16.030Z,53.80
2018-08-06T03:53:47.777Z,53.60
2018-08-06T03:54:19.506Z,53.60
2018-08-06T03:54:51.223Z,53.50
2018-08-06T03:55:22.949Z,53.50
2018-08-06T03:55:54.674Z,53.40
2018-08-06T03:56:26.390Z,53.40
2018-08-06T03:56:58.128Z,53.30
2018-08-06T03:57:29.846Z,53.20
2018-08-06T03:58:01.571Z,53.20
2018-08-06T03:58:33.294Z,53.30
2018-08-06T03:59:05.030Z,53.30
2018-08-06T03:59:36.745Z,53.20
2018-08-06T04:00:08.467Z,53.20
2018-08-06T04:00:40.194Z,53.30
2018-08-06T04:01:11.905Z,53.20
2018-08-06T04:01:43.638Z,53.20
2018-08-06T04:02:15.372Z,53.20
2018-08-06T04:02:47.108Z,53.20
2018-08-06T04:03:18.870Z,53.30
2018-08-06T04:03:50.601Z,53.20
2018-08-06T04:04:54.320Z,54.60
2018-08-06T04:05:26.049Z,55.20
2018-08-06T04:05:57.762Z,55.40
2018-08-06T04:06:29.691Z,56.70
2018-08-06T04:07:01.419Z,54.90
2018-08-06T04:07:33.159Z,54.80
2018-08-06T04:08:04.889Z,54.30
2018-08-06T04:08:36.610Z,55.60
2018-08-06T04:09:08.344Z,54.70
2018-08-06T04:09:40.071Z,54.20
2018-08-06T04:10:11.794Z,54.80
2018-08-06T04:10:43.554Z,54.90
2018-08-06T04:11:15.273Z,54.10
2018-08-06T04:11:47.004Z,54.10
2018-08-06T04:12:18.760Z,54.10
2018-08-06T04:12:50.474Z,54.00
2018-08-06T04:13:22.207Z,54.10
2018-08-06T04:13:54.161Z,54.20
2018-08-06T04:14:25.884Z,54.50
2018-08-06T04:14:57.615Z,54.00
2018-08-06T04:15:29.351Z,54.10
2018-08-06T04:16:01.307Z,54.20
2018-08-06T04:16:33.030Z,54.00
2018-08-06T04:17:04.770Z,54.40
2018-08-06T04:17:36.496Z,54.10
2018-08-06T04:18:08.220Z,53.90
2018-08-06T04:18:39.962Z,54.00
2018-08-06T04:19:11.754Z,54.00
2018-08-06T04:19:43.524Z,54.10
2018-08-06T04:20:15.403Z,54.00
2018-08-06T04:20:47.137Z,54.00
2018-08-06T04:21:18.917Z,54.00
2018-08-06T04:21:50.655Z,53.80
2018-08-06T04:22:22.386Z,53.90
2018-08-06T04:22:54.113Z,53.90
2018-08-06T04:23:25.843Z,54.00
2018-08-06T04:23:57.571Z,54.00
2018-08-06T04:24:29.289Z,53.80
2018-08-06T04:25:01.023Z,53.80
2018-08-06T04:25:32.764Z,53.90
2018-08-06T04:26:04.521Z,53.80
2018-08-06T04:26:36.265Z,53.80
2018-08-06T04:27:07.972Z,53.80
2018-08-06T04:27:39.717Z,53.70
2018-08-06T04:28:11.464Z,53.90
2018-08-06T04:28:43.188Z,53.80
2018-08-06T04:29:14.920Z,53.70
2018-08-06T04:29:46.652Z,53.90
2018-08-06T04:30:18.381Z,53.80
2018-08-06T04:30:50.109Z,53.80
2018-08-06T04:31:21.828Z,53.70
2018-08-06T04:31:53.571Z,53.70
2018-08-06T04:32:25.299Z,53.80
2018-08-06T04:32:57.056Z,54.00
2018-08-06T04:33:28.965Z,53.80
2018-08-06T04:34:00.754Z,53.80
2018-08-06T04:34:32.517Z,53.80
2018-08-06T04:35:04.254Z,53.80
2018-08-06T04:36:08.313Z,53.80
2018-08-06T04:36:40.046Z,53.90
2018-08-06T04:37:11.773Z,53.80
2018-08-06T04:37:43.499Z,53.80
2018-08-06T04:38:15.218Z,53.80
2018-08-06T04:38:46.939Z,53.80
2018-08-06T04:39:18.662Z,54.00
2018-08-06T04:39:50.394Z,53.70
2018-08-06T04:40:22.135Z,53.80
2018-08-06T04:40:53.878Z,53.90
2018-08-06T04:41:25.670Z,53.80
2018-08-06T04:41:57.678Z,53.80
2018-08-06T04:42:29.406Z,53.80
2018-08-06T04:43:01.145Z,54.00
2018-08-06T04:43:32.893Z,53.90
2018-08-06T04:44:04.632Z,53.90
2018-08-06T04:44:36.356Z,53.90
2018-08-06T04:45:08.082Z,53.90
2018-08-06T04:45:39.835Z,53.90
2018-08-06T04:46:11.577Z,54.00
2018-08-06T04:46:43.304Z,53.80
2018-08-06T04:47:15.083Z,54.00
2018-08-06T04:47:46.806Z,53.90
2018-08-06T04:48:18.541Z,53.90
2018-08-06T04:48:50.271Z,53.90
2018-08-06T04:49:22.016Z,53.90
2018-08-06T04:49:53.750Z,54.00
2018-08-06T04:50:25.460Z,53.90
2018-08-06T04:50:57.208Z,54.00
2018-08-06T04:51:28.950Z,54.00
2018-08-06T04:52:00.666Z,53.90
2018-08-06T04:52:32.402Z,53.90
2018-08-06T04:53:04.133Z,53.90
2018-08-06T04:53:35.870Z,53.90
2018-08-06T04:54:07.612Z,53.90
2018-08-06T04:54:39.339Z,53.90
2018-08-06T04:55:11.087Z,54.00
2018-08-06T04:55:42.876Z,54.00
2018-08-06T04:56:14.590Z,54.00
2018-08-06T04:56:46.341Z,54.00
2018-08-06T04:57:18.071Z,54.00
2018-08-06T04:57:49.794Z,54.00
2018-08-06T04:58:21.522Z,54.10
2018-08-06T04:58:53.277Z,54.10
2018-08-06T04:59:25.002Z,54.10
2018-08-06T04:59:56.913Z,54.10
2018-08-06T05:00:28.629Z,54.10
2018-08-06T05:01:00.407Z,54.10
2018-08-06T05:01:32.145Z,54.10
2018-08-06T05:02:03.906Z,54.10
2018-08-06T05:02:35.642Z,54.10
2018-08-06T05:03:07.378Z,54.10
2018-08-06T05:03:39.100Z,53.90
2018-08-06T05:04:11.225Z,54.20
2018-08-06T05:04:43.078Z,54.20
2018-08-06T05:05:14.788Z,54.20
2018-08-06T05:05:46.513Z,54.20
2018-08-06T05:06:18.246Z,54.20
2018-08-06T05:06:50.019Z,54.30
2018-08-06T05:07:21.901Z,54.30
2018-08-06T05:07:53.658Z,54.20
2018-08-06T05:08:25.383Z,54.20
2018-08-06T05:08:57.097Z,54.30
2018-08-06T05:09:28.828Z,54.30
2018-08-06T05:10:00.652Z,54.30
2018-08-06T05:10:32.368Z,54.40
2018-08-06T05:11:04.212Z,54.30
2018-08-06T05:11:35.904Z,54.30
2018-08-06T05:12:07.630Z,54.30
2018-08-06T05:12:39.373Z,54.50
2018-08-06T05:13:11.084Z,54.40
2018-08-06T05:13:42.819Z,54.50
2018-08-06T05:14:14.740Z,54.40
2018-08-06T05:14:46.661Z,54.50
2018-08-06T05:15:18.405Z,54.10
2018-08-06T05:15:50.141Z,54.50
2018-08-06T05:16:21.871Z,54.60
2018-08-06T05:16:53.584Z,54.60
2018-08-06T05:17:25.510Z,54.60
2018-08-06T05:17:57.264Z,54.60
2018-08-06T05:18:29.145Z,55.20
2018-08-06T05:19:00.842Z,54.60
2018-08-06T05:19:32.618Z,54.70
2018-08-06T05:20:04.517Z,54.70
2018-08-06T05:20:36.234Z,54.70
2018-08-06T05:21:07.973Z,54.70
2018-08-06T05:21:39.705Z,54.70
2018-08-06T05:22:11.430Z,54.70
2018-08-06T05:23:47.222Z,55.40
2018-08-06T05:24:18.954Z,54.80
2018-08-06T05:24:50.746Z,54.80
2018-08-06T05:25:22.609Z,54.70
2018-08-06T05:25:54.342Z,54.90
2018-08-06T05:26:26.274Z,54.90
2018-08-06T05:26:58.029Z,54.90
2018-08-06T05:27:29.744Z,54.90
2018-08-06T05:28:01.673Z,55.00
2018-08-06T05:28:33.373Z,55.00
2018-08-06T05:29:05.094Z,55.00
2018-08-06T05:29:36.823Z,55.10
2018-08-06T05:30:08.609Z,55.70
2018-08-06T05:30:40.350Z,55.10
2018-08-06T05:31:12.312Z,55.10
2018-08-06T05:31:44.022Z,55.10
2018-08-06T05:32:15.749Z,55.20
2018-08-06T05:32:47.484Z,55.30
2018-08-06T05:33:19.204Z,55.20
2018-08-06T05:33:50.931Z,55.30
2018-08-06T05:34:22.653Z,55.20
2018-08-06T05:34:54.450Z,55.20
2018-08-06T05:35:26.155Z,55.30
2018-08-06T05:35:57.941Z,55.30
2018-08-06T05:36:29.652Z,55.40
2018-08-06T05:37:33.428Z,55.40
2018-08-06T05:38:05.140Z,55.30
2018-08-06T05:38:36.871Z,55.40
2018-08-06T05:39:08.598Z,55.40
2018-08-06T05:39:40.328Z,55.30
2018-08-06T05:40:12.048Z,55.40
2018-08-06T05:40:43.775Z,55.50
2018-08-06T05:41:15.506Z,55.40
2018-08-06T05:41:47.228Z,55.30
2018-08-06T05:42:18.953Z,55.30
2018-08-06T05:42:50.693Z,55.40
2018-08-06T05:43:22.442Z,55.40
2018-08-06T05:43:54.193Z,55.40
2018-08-06T05:44:25.929Z,55.40
2018-08-06T05:44:57.638Z,55.50
2018-08-06T05:45:29.371Z,55.50
2018-08-06T05:46:01.090Z,55.70
2018-08-06T05:46:32.855Z,55.50
2018-08-06T05:47:04.573Z,55.40
2018-08-06T05:47:36.318Z,55.70
2018-08-06T05:48:08.102Z,55.60
2018-08-06T05:48:39.977Z,55.70
2018-08-06T05:49:11.712Z,55.60
2018-08-06T05:49:43.429Z,55.60
2018-08-06T05:50:15.146Z,55.50
2018-08-06T05:50:46.867Z,55.50
2018-08-06T05:51:18.621Z,55.50
2018-08-06T05:51:50.335Z,55.60
2018-08-06T05:52:22.059Z,55.60
2018-08-06T05:52:53.797Z,56.30
2018-08-06T05:53:25.526Z,55.80
2018-08-06T05:53:57.263Z,55.70
2018-08-06T05:54:28.985Z,55.50
2018-08-06T05:55:00.743Z,55.60
2018-08-06T05:55:32.471Z,55.60
2018-08-06T05:56:04.216Z,55.60
2018-08-06T05:56:35.952Z,55.60
2018-08-06T05:57:07.690Z,55.60
2018-08-06T05:57:39.415Z,55.70
2018-08-06T05:58:11.182Z,55.70
2018-08-06T05:58:43.094Z,55.80
2018-08-06T05:59:14.819Z,55.80
2018-08-06T05:59:46.546Z,55.90
2018-08-06T06:00:18.270Z,55.80
2018-08-06T06:00:50.090Z,55.80
2018-08-06T06:01:21.825Z,55.80
2018-08-06T06:01:53.537Z,55.90
2018-08-06T06:02:25.282Z,55.80
2018-08-06T06:02:57.014Z,55.80
2018-08-06T06:03:28.739Z,55.90
2018-08-06T06:04:00.488Z,56.00
2018-08-06T06:04:32.235Z,56.50
2018-08-06T06:05:03.985Z,55.90
2018-08-06T06:05:35.706Z,55.90
2018-08-06T06:06:07.458Z,55.90
2018-08-06T06:06:39.366Z,56.00
2018-08-06T06:07:43.136Z,56.00
2018-08-06T06:08:14.880Z,56.00
2018-08-06T06:08:46.607Z,56.10
2018-08-06T06:09:18.342Z,56.00
2018-08-06T06:09:50.064Z,56.00
2018-08-06T06:10:21.795Z,56.10
2018-08-06T06:10:53.518Z,56.30
2018-08-06T06:11:25.261Z,56.00
2018-08-06T06:11:57.199Z,55.90
2018-08-06T06:12:28.962Z,56.00
2018-08-06T06:13:00.710Z,55.90
2018-08-06T06:13:32.448Z,56.10
2018-08-06T06:14:04.221Z,56.00
2018-08-06T06:14:35.996Z,56.00
2018-08-06T06:15:07.727Z,56.00
2018-08-06T06:15:39.550Z,56.10
2018-08-06T06:16:11.273Z,56.10
2018-08-06T06:16:43.340Z,56.20
2018-08-06T06:17:15.071Z,56.10
2018-08-06T06:17:46.831Z,56.10
2018-08-06T06:18:18.558Z,56.20
2018-08-06T06:18:50.283Z,56.30
2018-08-06T06:19:22.018Z,56.40
2018-08-06T06:19:53.728Z,56.50
2018-08-06T06:20:25.445Z,56.40
2018-08-06T06:20:57.198Z,56.40
2018-08-06T06:21:28.916Z,56.90
2018-08-06T06:22:00.643Z,56.40
2018-08-06T06:22:32.433Z,56.40
2018-08-06T06:23:04.152Z,56.60
2018-08-06T06:23:36.086Z,56.60
2018-08-06T06:24:07.818Z,56.50
2018-08-06T06:24:39.550Z,56.40
2018-08-06T06:25:11.291Z,56.40
2018-08-06T06:25:43.027Z,56.50
2018-08-06T06:26:14.959Z,56.40
2018-08-06T06:26:46.670Z,56.40
2018-08-06T06:27:18.401Z,56.40
2018-08-06T06:27:50.136Z,56.20
2018-08-06T06:28:21.858Z,56.90
2018-08-06T06:28:53.599Z,56.40
2018-08-06T06:29:25.334Z,56.50
2018-08-06T06:29:57.069Z,56.60
2018-08-06T06:30:28.788Z,56.60
2018-08-06T06:31:00.526Z,56.60
2018-08-06T06:31:32.241Z,57.30
2018-08-06T06:32:04.034Z,56.70
2018-08-06T06:32:35.774Z,56.60
2018-08-06T06:33:07.564Z,56.70
2018-08-06T06:33:39.266Z,56.70
2018-08-06T06:34:10.997Z,56.80
2018-08-06T06:34:42.799Z,57.20
2018-08-06T06:35:14.691Z,56.90
2018-08-06T06:35:46.413Z,57.00
2018-08-06T06:36:18.137Z,56.90
2018-08-06T06:36:49.868Z,57.00
2018-08-06T06:37:21.601Z,57.00
2018-08-06T06:37:53.326Z,57.00
2018-08-06T06:38:25.041Z,57.10
2018-08-06T06:38:56.769Z,57.20
2018-08-06T06:39:28.550Z,57.20
2018-08-06T06:40:00.263Z,57.20
2018-08-06T06:40:31.997Z,57.30
2018-08-06T06:41:03.732Z,57.20
2018-08-06T06:41:35.537Z,57.20
2018-08-06T06:42:07.453Z,57.20
2018-08-06T06:42:39.217Z,57.40
2018-08-06T06:43:10.941Z,57.20
2018-08-06T06:43:42.677Z,57.10
2018-08-06T06:44:14.401Z,57.40
2018-08-06T06:44:46.141Z,57.40
2018-08-06T06:45:17.872Z,57.40
2018-08-06T06:45:49.631Z,57.50
2018-08-06T06:46:21.337Z,57.30
2018-08-06T06:46:53.074Z,57.40
2018-08-06T06:47:24.777Z,57.30
2018-08-06T06:47:56.508Z,57.40
2018-08-06T06:48:28.286Z,57.30
2018-08-06T06:49:00.134Z,57.50
2018-08-06T06:49:31.969Z,57.40
2018-08-06T06:50:03.709Z,57.30
2018-08-06T06:50:35.487Z,57.30
2018-08-06T06:51:07.202Z,57.20
2018-08-06T06:51:38.943Z,57.30
2018-08-06T06:52:10.660Z,57.40
2018-08-06T06:52:42.412Z,57.50
2018-08-06T06:53:14.193Z,57.60
2018-08-06T06:53:45.920Z,57.50
2018-08-06T06:54:17.659Z,57.50
2018-08-06T06:55:21.573Z,57.50
2018-08-06T06:55:53.303Z,57.60
2018-08-06T06:56:25.031Z,57.50
2018-08-06T06:56:56.793Z,57.50
2018-08-06T06:57:28.562Z,57.50
2018-08-06T06:58:00.298Z,57.50